createdAt,value
2019-03-24T00:00:49.151Z,96404.00
2019-03-24T00:06:18.567Z,96402.00
2019-03-24T00:11:47.929Z,96399.00
2019-03-24T00:17:17.399Z,96391.00
2019-03-24T00:22:46.718Z,96394.00
2019-03-24T00:28:16.198Z,96386.00
2019-03-24T00:33:45.546Z,96382.00
2019-03-24T00:39:14.948Z,96379.00
2019-03-24T00:44:44.305Z,96379.00
2019-03-24T00:50:13.927Z,96369.00
2019-03-24T00:55:43.383Z,96365.00
2019-03-24T01:01:12.696Z,96363.00
2019-03-24T01:06:42.138Z,96350.00
2019-03-24T01:12:12.385Z,96349.00
2019-03-24T01:17:41.804Z,96342.00
2019-03-24T01:23:11.185Z,96330.00
2019-03-24T01:28:40.510Z,96333.00
2019-03-24T01:34:10.096Z,96323.00
2019-03-24T01:39:39.408Z,96323.00
2019-03-24T01:45:11.691Z,96318.00
2019-03-24T01:50:41.149Z,96309.00
2019-03-24T01:56:10.923Z,96305.00
2019-03-24T02:01:40.225Z,96302.00
2019-03-24T02:07:09.628Z,96300.00
2019-03-24T02:12:39.565Z,96297.00
2019-03-24T02:18:08.960Z,96289.00
2019-03-24T02:23:38.327Z,96293.00
2019-03-24T02:29:07.706Z,96286.00
2019-03-24T02:34:37.051Z,96281.00
2019-03-24T02:40:08.678Z,96282.00
2019-03-24T02:45:38.009Z,96258.00
2019-03-24T02:51:07.355Z,96271.00
2019-03-24T02:56:36.750Z,96268.00
2019-03-24T03:02:06.423Z,96252.00
2019-03-24T03:07:35.895Z,96268.00
2019-03-24T03:13:05.381Z,96274.00
2019-03-24T03:18:34.781Z,96278.00
2019-03-24T03:24:04.331Z,96279.00
2019-03-24T03:29:33.701Z,96285.00
2019-03-24T03:35:04.488Z,96275.00
2019-03-24T03:40:34.253Z,96270.00
2019-03-24T03:46:03.887Z,96273.00
2019-03-24T03:51:33.345Z,96277.00
2019-03-24T03:57:02.901Z,96266.00
2019-03-24T04:02:33.237Z,96267.00
2019-03-24T04:08:03.175Z,96254.00
2019-03-24T04:13:32.646Z,96250.00
2019-03-24T04:19:02.034Z,96248.00
2019-03-24T04:24:31.433Z,96248.00
2019-03-24T04:30:01.060Z,96264.00
2019-03-24T04:35:30.463Z,96253.00
2019-03-24T04:41:00.134Z,96250.00
2019-03-24T04:46:29.545Z,96247.00
2019-03-24T04:52:00.241Z,96248.00
2019-03-24T04:57:29.643Z,96243.00
2019-03-24T05:02:59.186Z,96253.00
2019-03-24T05:08:29.507Z,96248.00
2019-03-24T05:13:59.100Z,96258.00
2019-03-24T05:19:28.851Z,96263.00
2019-03-24T05:24:58.255Z,96263.00
2019-03-24T05:30:27.919Z,96258.00
2019-03-24T05:35:57.450Z,96251.00
2019-03-24T05:41:26.995Z,96258.00
2019-03-24T05:46:56.517Z,96246.00
2019-03-24T05:52:27.686Z,96251.00
2019-03-24T05:57:57.718Z,96240.00
2019-03-24T06:03:27.295Z,96237.00
2019-03-24T06:08:56.916Z,96249.00
2019-03-24T06:14:26.450Z,96252.00
2019-03-24T06:19:55.987Z,96250.00
2019-03-24T06:25:25.643Z,96257.00
2019-03-24T06:30:55.077Z,96260.00
2019-03-24T06:36:24.658Z,96249.00
2019-03-24T06:41:54.040Z,96248.00
2019-03-24T06:47:23.581Z,96247.00
2019-03-24T06:52:54.351Z,96238.00
2019-03-24T06:58:24.572Z,96237.00
2019-03-24T07:03:53.995Z,96234.00
2019-03-24T07:09:23.424Z,96246.00
2019-03-24T07:14:52.735Z,96234.00
2019-03-24T07:20:22.345Z,96237.00
2019-03-24T07:25:52.049Z,96242.00
2019-03-24T07:31:22.161Z,96241.00
2019-03-24T07:36:53.655Z,96230.00
2019-03-24T07:42:23.036Z,96223.00
2019-03-24T07:47:53.176Z,96223.00
2019-03-24T07:53:22.669Z,96222.00
2019-03-24T07:58:54.024Z,96219.00
2019-03-24T08:04:28.038Z,96230.00
2019-03-24T08:09:57.606Z,96231.00
2019-03-24T08:15:28.350Z,96219.00
2019-03-24T08:21:00.955Z,96214.00
2019-03-24T08:26:34.876Z,96209.00
2019-03-24T08:32:04.281Z,96212.00
2019-03-24T08:37:33.852Z,96216.00
2019-03-24T08:43:03.677Z,96213.00
2019-03-24T08:48:40.781Z,96206.00
2019-03-24T08:54:07.233Z,96208.00
2019-03-24T08:59:39.940Z,96204.00
2019-03-24T09:05:10.788Z,96193.00
2019-03-24T09:10:41.070Z,96188.00
2019-03-24T09:16:11.063Z,96185.00
2019-03-24T09:21:41.521Z,96193.00
2019-03-24T09:27:11.702Z,96198.00
2019-03-24T09:32:41.113Z,96193.00
2019-03-24T09:38:10.543Z,96192.00
2019-03-24T09:43:39.986Z,96178.00
2019-03-24T09:49:09.766Z,96186.00
2019-03-24T09:54:39.180Z,96176.00
2019-03-24T10:00:08.857Z,96177.00
2019-03-24T10:05:38.252Z,96162.00
2019-03-24T10:11:14.584Z,96154.00
2019-03-24T10:16:44.064Z,96156.00
2019-03-24T10:22:13.512Z,96151.00
2019-03-24T10:27:42.973Z,96148.00
2019-03-24T10:33:13.536Z,96138.00
2019-03-24T10:38:45.238Z,96131.00
2019-03-24T10:44:14.979Z,96122.00
2019-03-24T10:49:44.605Z,96126.00
2019-03-24T10:55:14.900Z,96116.00
2019-03-24T11:00:46.668Z,96116.00
2019-03-24T11:06:15.988Z,96107.00
2019-03-24T11:11:45.487Z,96110.00
2019-03-24T11:17:14.933Z,96104.00
2019-03-24T11:22:45.358Z,96099.00
2019-03-24T11:28:14.813Z,96095.00
2019-03-24T11:33:44.197Z,96079.00
2019-03-24T11:39:13.789Z,96079.00
2019-03-24T11:44:43.363Z,96073.00
2019-03-24T11:50:13.180Z,96065.00
2019-03-24T11:55:42.754Z,96063.00
2019-03-24T12:01:12.247Z,96049.00
2019-03-24T12:06:42.042Z,96048.00
2019-03-24T12:12:11.510Z,96038.00
2019-03-24T12:17:41.158Z,96036.00
2019-03-24T12:23:10.514Z,96032.00
2019-03-24T12:28:39.886Z,96018.00
2019-03-24T12:34:11.464Z,96017.00
2019-03-24T12:39:40.891Z,96005.00
2019-03-24T12:45:12.068Z,96001.00
2019-03-24T12:50:41.578Z,96000.00
2019-03-24T12:56:11.025Z,95999.00
2019-03-24T13:01:40.694Z,96000.00
2019-03-24T13:07:10.028Z,95988.00
2019-03-24T13:12:39.640Z,95980.00
2019-03-24T13:18:10.577Z,95995.00
2019-03-24T13:23:39.892Z,95987.00
2019-03-24T13:29:09.286Z,95978.00
2019-03-24T13:34:38.671Z,95963.00
2019-03-24T13:40:08.448Z,95972.00
2019-03-24T13:45:37.901Z,95958.00
2019-03-24T13:51:08.421Z,95952.00
2019-03-24T13:56:38.016Z,95947.00
2019-03-24T14:02:09.258Z,95917.00
2019-03-24T14:07:38.646Z,95908.00
2019-03-24T14:13:08.008Z,95907.00
2019-03-24T14:18:40.382Z,95900.00
2019-03-24T14:24:09.848Z,95904.00
2019-03-24T14:29:39.363Z,95886.00
2019-03-24T14:35:09.577Z,95871.00
2019-03-24T14:40:39.138Z,95864.00
2019-03-24T14:46:09.010Z,95866.00
2019-03-24T14:51:38.639Z,95866.00
2019-03-24T14:57:08.743Z,95860.00
2019-03-24T15:02:38.071Z,95857.00
2019-03-24T15:08:08.015Z,95852.00
2019-03-24T15:13:37.329Z,95859.00
2019-03-24T15:19:07.284Z,95854.00
2019-03-24T15:24:36.725Z,95868.00
2019-03-24T15:30:09.094Z,95886.00
2019-03-24T15:35:38.684Z,95868.00
2019-03-24T15:41:08.322Z,95863.00
2019-03-24T15:46:37.947Z,95848.00
2019-03-24T15:52:07.426Z,95865.00
2019-03-24T15:57:38.066Z,95864.00
2019-03-24T16:03:07.559Z,95866.00
2019-03-24T16:08:38.004Z,95858.00
2019-03-24T16:14:07.578Z,95868.00
2019-03-24T16:19:38.636Z,95861.00
2019-03-24T16:25:08.850Z,95886.00
2019-03-24T16:30:39.418Z,95873.00
2019-03-24T16:36:12.342Z,95879.00
2019-03-24T16:41:41.953Z,95884.00
2019-03-24T16:47:11.377Z,95880.00
2019-03-24T16:52:42.355Z,95885.00
2019-03-24T16:58:13.493Z,95882.00
2019-03-24T17:03:42.968Z,95890.00
2019-03-24T17:09:12.483Z,95892.00
2019-03-24T17:14:41.996Z,95891.00
2019-03-24T17:20:11.545Z,95912.00
2019-03-24T17:25:41.013Z,95897.00
2019-03-24T17:31:10.535Z,95906.00
2019-03-24T17:36:42.522Z,95904.00
2019-03-24T17:42:11.917Z,95914.00
2019-03-24T17:47:41.564Z,95929.00
2019-03-24T17:53:10.989Z,95939.00
2019-03-24T17:58:40.368Z,95936.00
2019-03-24T18:04:10.049Z,95941.00
2019-03-24T18:09:40.436Z,95955.00
2019-03-24T18:15:11.235Z,95973.00
2019-03-24T18:20:40.782Z,95987.00
2019-03-24T18:26:10.279Z,95979.00
2019-03-24T18:31:39.961Z,95996.00
2019-03-24T18:37:09.528Z,96002.00
2019-03-24T18:42:39.412Z,96000.00
2019-03-24T18:48:08.973Z,96017.00
2019-03-24T18:53:38.495Z,96027.00
2019-03-24T18:59:08.211Z,96041.00
2019-03-24T19:04:37.819Z,96036.00
2019-03-24T19:10:09.878Z,96052.00
2019-03-24T19:15:39.493Z,96055.00
2019-03-24T19:21:09.844Z,96065.00
2019-03-24T19:26:39.673Z,96079.00
2019-03-24T19:32:11.107Z,96084.00
2019-03-24T19:37:42.106Z,96078.00
2019-03-24T19:43:11.763Z,96081.00
2019-03-24T19:48:41.222Z,96088.00
2019-03-24T19:54:22.569Z,96087.00
2019-03-24T19:59:52.841Z,96078.00
2019-03-24T20:05:22.273Z,96087.00
2019-03-24T20:10:51.821Z,96087.00
2019-03-24T20:16:22.588Z,96078.00
2019-03-24T20:21:58.428Z,96088.00
2019-03-24T20:27:32.049Z,96084.00
2019-03-24T20:33:02.204Z,96079.00
2019-03-24T20:38:31.773Z,96075.00
2019-03-24T20:44:05.535Z,96081.00
2019-03-24T20:49:37.016Z,96086.00
2019-03-24T20:55:08.185Z,96083.00
2019-03-24T21:00:38.423Z,96088.00
2019-03-24T21:06:08.203Z,96075.00
2019-03-24T21:11:37.877Z,96084.00
2019-03-24T21:17:07.529Z,96077.00
2019-03-24T21:22:41.737Z,96075.00
2019-03-24T21:28:11.243Z,96056.00
2019-03-24T21:33:41.204Z,96061.00
2019-03-24T21:39:16.908Z,96058.00
2019-03-24T21:44:48.501Z,96053.00
2019-03-24T21:50:18.009Z,96063.00
2019-03-24T21:55:47.522Z,96062.00
2019-03-24T22:01:16.977Z,96068.00
2019-03-24T22:06:47.304Z,96063.00
2019-03-24T22:12:16.731Z,96049.00
2019-03-24T22:17:46.152Z,96043.00
2019-03-24T22:23:15.500Z,96045.00
2019-03-24T22:28:45.191Z,96041.00
2019-03-24T22:34:14.651Z,96030.00
2019-03-24T22:39:44.003Z,96018.00
2019-03-24T22:45:13.654Z,96018.00
2019-03-24T22:50:43.124Z,96012.00
2019-03-24T22:56:12.586Z,96013.00
2019-03-24T23:01:42.085Z,96010.00
2019-03-24T23:07:11.671Z,96010.00
2019-03-24T23:12:41.162Z,95988.00
2019-03-24T23:18:10.617Z,95982.00
2019-03-24T23:23:41.378Z,95977.00
2019-03-24T23:29:10.761Z,95972.00
2019-03-24T23:34:40.310Z,95961.00
2019-03-24T23:40:10.120Z,95960.00
2019-03-24T23:45:39.971Z,95951.00
2019-03-24T23:51:10.597Z,95950.00
2019-03-24T23:56:39.931Z,95949.00
